Thetford Mines, Canada
Current Conditions -  °F | °C
As of 9:30 AM on Thursday 23 Oct 2014 (Local Time) from CYSC Reporting Station
Light Rain Light Rain  
Wind Chill: 36°   Ceiling: 1600
Heat Index: 43°   Visibility: 9mi
Dew Point: 39°   Wind: 14mph
Humidity: 87%   Direction: 40°NE
Pressure: 30"   Gusts: 20mph
Location:  46.08°N, 71.3°W
Report Text: CYSC 231330Z AUTO 04012G17KT 9SM -RA OVC016 06/04 A3000 RMK PCPN 0.5MM PAST HR SLP167
Loading
Personal Weather Stations






























Interactive Weather Map
Tropical Storm Tracking
New forecast layout! Learn more

10-Day Weather Forecast

Advertisements
Track Severe Weather on mobile